Terminal Aerodrome Forecast
Issued by NWS Cleveland, OH

Current Version | Previous Version | Text Only | Print | Product List | Glossary On
Versions: 1 2 3 4 5 6 7 8 9 10 11 12 13 14
000
FTUS41 KCLE 261741
TAFYNG
TAF
KYNG 261741Z 2618/2718 15012G20KT P6SM OVC080
     FM261900 15012KT 6SM -RA OVC035
     FM262100 16008KT 5SM -SHRA BR OVC025
      TEMPO 2622/2624 2SM -TSRA BR OVC015CB
     FM270100 16007KT 6SM -SHRA VCTS BKN025CB OVC035
      TEMPO 2701/2704 2SM -TSRA BKN015CB
     FM270400 16008KT 4SM BR OVC008
     FM271400 23006KT P6SM OVC015=

USA.gov is the U.S. government's official web portal to all federal, state and local government web resources and services.